<?xml version="1.0" encoding="UTF-8" standalone="no" ?>
<gpx xmlns="http://www.topografix.com/GPX/1/1" xmlns:xsi="http://www.w3.org/2001/XMLSchema-instance" xsi:schemaLocation="http://www.topografix.com/GPX/1/1 http://www.topografix.com/GPX/1/1/gpx.xsd" version="1.1" creator="VisuGPX - https://www.visugpx.com">
  <metadata>
    <name>Exercice de relais avec le club</name>
  </metadata>
  <trk>
    <name><![CDATA[Exercice de relais avec le club_1]]></name>
    <trkseg>
      <trkpt lat="48.7296" lon="7.32291">
        <ele>395.1</ele>
        <time>2023-08-21T12:50:02Z</time>
      </trkpt>
      <trkpt lat="48.72975" lon="7.32275">
        <ele>395</ele>
        <time>2023-08-21T12:50:08Z</time>
      </trkpt>
      <trkpt lat="48.72993" lon="7.32262">
        <ele>395.1</ele>
        <time>2023-08-21T12:50:12Z</time>
      </trkpt>
      <trkpt lat="48.73009" lon="7.32252">
        <ele>395.4</ele>
        <time>2023-08-21T12:50:16Z</time>
      </trkpt>
      <trkpt lat="48.73029" lon="7.3224">
        <ele>396</ele>
        <time>2023-08-21T12:50:21Z</time>
      </trkpt>
      <trkpt lat="48.73049" lon="7.32228">
        <ele>396.8</ele>
        <time>2023-08-21T12:50:26Z</time>
      </trkpt>
      <trkpt lat="48.73068" lon="7.32222">
        <ele>397.6</ele>
        <time>2023-08-21T12:50:31Z</time>
      </trkpt>
      <trkpt lat="48.73086" lon="7.32213">
        <ele>398.4</ele>
        <time>2023-08-21T12:50:37Z</time>
      </trkpt>
      <trkpt lat="48.73092" lon="7.32187">
        <ele>398.9</ele>
        <time>2023-08-21T12:50:46Z</time>
      </trkpt>
      <trkpt lat="48.73091" lon="7.32161">
        <ele>399.1</ele>
        <time>2023-08-21T12:50:55Z</time>
      </trkpt>
      <trkpt lat="48.73101" lon="7.32138">
        <ele>399.2</ele>
        <time>2023-08-21T12:51:09Z</time>
      </trkpt>
      <trkpt lat="48.73102" lon="7.32136">
        <ele>399.2</ele>
        <time>2023-08-21T12:51:11Z</time>
      </trkpt>
      <trkpt lat="48.73122" lon="7.32139">
        <ele>399.3</ele>
        <time>2023-08-21T12:51:18Z</time>
      </trkpt>
      <trkpt lat="48.7314" lon="7.3215">
        <ele>399.4</ele>
        <time>2023-08-21T12:51:25Z</time>
      </trkpt>
      <trkpt lat="48.73156" lon="7.32163">
        <ele>399.5</ele>
        <time>2023-08-21T12:51:31Z</time>
      </trkpt>
      <trkpt lat="48.73172" lon="7.32178">
        <ele>399.6</ele>
        <time>2023-08-21T12:51:38Z</time>
      </trkpt>
      <trkpt lat="48.73173" lon="7.32206">
        <ele>399.6</ele>
        <time>2023-08-21T12:51:45Z</time>
      </trkpt>
      <trkpt lat="48.73179" lon="7.32229">
        <ele>399.8</ele>
        <time>2023-08-21T12:51:55Z</time>
      </trkpt>
      <trkpt lat="48.73177" lon="7.32234">
        <ele>399.8</ele>
        <time>2023-08-21T12:51:58Z</time>
      </trkpt>
      <trkpt lat="48.7317" lon="7.32266">
        <ele>399.9</ele>
        <time>2023-08-21T12:52:05Z</time>
      </trkpt>
      <trkpt lat="48.73182" lon="7.32288">
        <ele>400</ele>
        <time>2023-08-21T12:52:09Z</time>
      </trkpt>
      <trkpt lat="48.73201" lon="7.32306">
        <ele>400.2</ele>
        <time>2023-08-21T12:52:13Z</time>
      </trkpt>
      <trkpt lat="48.73216" lon="7.32322">
        <ele>400.4</ele>
        <time>2023-08-21T12:52:17Z</time>
      </trkpt>
      <trkpt lat="48.73229" lon="7.32342">
        <ele>400.6</ele>
        <time>2023-08-21T12:52:22Z</time>
      </trkpt>
      <trkpt lat="48.73245" lon="7.32362">
        <ele>400.8</ele>
        <time>2023-08-21T12:52:27Z</time>
      </trkpt>
      <trkpt lat="48.73261" lon="7.32378">
        <ele>400.8</ele>
        <time>2023-08-21T12:52:31Z</time>
      </trkpt>
      <trkpt lat="48.73271" lon="7.32405">
        <ele>400.8</ele>
        <time>2023-08-21T12:52:36Z</time>
      </trkpt>
      <trkpt lat="48.73283" lon="7.32427">
        <ele>400.8</ele>
        <time>2023-08-21T12:52:40Z</time>
      </trkpt>
      <trkpt lat="48.73299" lon="7.3245">
        <ele>400.8</ele>
        <time>2023-08-21T12:52:45Z</time>
      </trkpt>
      <trkpt lat="48.73314" lon="7.32474">
        <ele>400.8</ele>
        <time>2023-08-21T12:52:50Z</time>
      </trkpt>
      <trkpt lat="48.73326" lon="7.32495">
        <ele>401</ele>
        <time>2023-08-21T12:52:54Z</time>
      </trkpt>
      <trkpt lat="48.7333" lon="7.32514">
        <ele>401.1</ele>
        <time>2023-08-21T12:53:02Z</time>
      </trkpt>
      <trkpt lat="48.73328" lon="7.32516">
        <ele>400.1</ele>
        <time>2023-08-21T12:53:05Z</time>
      </trkpt>
      <trkpt lat="48.73326" lon="7.3252">
        <ele>398.3</ele>
        <time>2023-08-21T12:53:07Z</time>
      </trkpt>
      <trkpt lat="48.73324" lon="7.32527">
        <ele>396.4</ele>
        <time>2023-08-21T12:53:12Z</time>
      </trkpt>
      <trkpt lat="48.73323" lon="7.32529">
        <ele>395.5</ele>
        <time>2023-08-21T12:53:15Z</time>
      </trkpt>
      <trkpt lat="48.73323" lon="7.32531">
        <ele>394.5</ele>
        <time>2023-08-21T12:53:17Z</time>
      </trkpt>
      <trkpt lat="48.73324" lon="7.32533">
        <ele>394.6</ele>
        <time>2023-08-21T12:53:19Z</time>
      </trkpt>
      <trkpt lat="48.73318" lon="7.3254">
        <ele>390.1</ele>
        <time>2023-08-21T12:53:22Z</time>
      </trkpt>
      <trkpt lat="48.73305" lon="7.32555">
        <ele>380.8</ele>
        <time>2023-08-21T12:53:35Z</time>
      </trkpt>
      <trkpt lat="48.73298" lon="7.32556">
        <ele>378.1</ele>
        <time>2023-08-21T12:53:40Z</time>
      </trkpt>
      <trkpt lat="48.73295" lon="7.32557">
        <ele>374</ele>
        <time>2023-08-21T12:53:44Z</time>
      </trkpt>
      <trkpt lat="48.73295" lon="7.32551">
        <ele>376.9</ele>
        <time>2023-08-21T12:53:49Z</time>
      </trkpt>
      <trkpt lat="48.73296" lon="7.32549">
        <ele>377</ele>
        <time>2023-08-21T12:53:55Z</time>
      </trkpt>
      <trkpt lat="48.73295" lon="7.32547">
        <ele>378.5</ele>
        <time>2023-08-21T12:53:59Z</time>
      </trkpt>
      <trkpt lat="48.73295" lon="7.32548">
        <ele>378.6</ele>
        <time>2023-08-21T12:54:01Z</time>
      </trkpt>
      <trkpt lat="48.73308" lon="7.32551">
        <ele>384.6</ele>
        <time>2023-08-21T12:54:23Z</time>
      </trkpt>
      <trkpt lat="48.73312" lon="7.32548">
        <ele>386.1</ele>
        <time>2023-08-21T12:54:29Z</time>
      </trkpt>
      <trkpt lat="48.73323" lon="7.32533">
        <ele>396.1</ele>
        <time>2023-08-21T12:54:40Z</time>
      </trkpt>
      <trkpt lat="48.73326" lon="7.32525">
        <ele>399.5</ele>
        <time>2023-08-21T12:54:46Z</time>
      </trkpt>
      <trkpt lat="48.73329" lon="7.32518">
        <ele>401.7</ele>
        <time>2023-08-21T12:54:51Z</time>
      </trkpt>
      <trkpt lat="48.73331" lon="7.32514">
        <ele>403.8</ele>
        <time>2023-08-21T12:54:55Z</time>
      </trkpt>
      <trkpt lat="48.73335" lon="7.32506">
        <ele>406.6</ele>
        <time>2023-08-21T12:55:01Z</time>
      </trkpt>
      <trkpt lat="48.73348" lon="7.32487">
        <ele>414.4</ele>
        <time>2023-08-21T12:55:15Z</time>
      </trkpt>
      <trkpt lat="48.73366" lon="7.32475">
        <ele>419.8</ele>
        <time>2023-08-21T12:55:24Z</time>
      </trkpt>
      <trkpt lat="48.7338" lon="7.32458">
        <ele>424.5</ele>
        <time>2023-08-21T12:55:34Z</time>
      </trkpt>
      <trkpt lat="48.73396" lon="7.32443">
        <ele>430.4</ele>
        <time>2023-08-21T12:55:45Z</time>
      </trkpt>
      <trkpt lat="48.73408" lon="7.32419">
        <ele>434.7</ele>
        <time>2023-08-21T12:55:54Z</time>
      </trkpt>
      <trkpt lat="48.7342" lon="7.32396">
        <ele>439.6</ele>
        <time>2023-08-21T12:56:04Z</time>
      </trkpt>
      <trkpt lat="48.73435" lon="7.32376">
        <ele>443.6</ele>
        <time>2023-08-21T12:56:15Z</time>
      </trkpt>
      <trkpt lat="48.73453" lon="7.32381">
        <ele>445.8</ele>
        <time>2023-08-21T12:56:23Z</time>
      </trkpt>
      <trkpt lat="48.73471" lon="7.32393">
        <ele>447.7</ele>
        <time>2023-08-21T12:56:30Z</time>
      </trkpt>
      <trkpt lat="48.73474" lon="7.32391">
        <ele>448.2</ele>
        <time>2023-08-21T12:56:34Z</time>
      </trkpt>
      <trkpt lat="48.73481" lon="7.32362">
        <ele>450.8</ele>
        <time>2023-08-21T12:56:44Z</time>
      </trkpt>
      <trkpt lat="48.73483" lon="7.32333">
        <ele>453.1</ele>
        <time>2023-08-21T12:56:52Z</time>
      </trkpt>
      <trkpt lat="48.73485" lon="7.32305">
        <ele>455</ele>
        <time>2023-08-21T12:57:00Z</time>
      </trkpt>
      <trkpt lat="48.73485" lon="7.32277">
        <ele>456.7</ele>
        <time>2023-08-21T12:57:06Z</time>
      </trkpt>
      <trkpt lat="48.73493" lon="7.32249">
        <ele>457.5</ele>
        <time>2023-08-21T12:57:14Z</time>
      </trkpt>
      <trkpt lat="48.73497" lon="7.32222">
        <ele>457.6</ele>
        <time>2023-08-21T12:57:20Z</time>
      </trkpt>
      <trkpt lat="48.73496" lon="7.32193">
        <ele>457.9</ele>
        <time>2023-08-21T12:57:25Z</time>
      </trkpt>
      <trkpt lat="48.73498" lon="7.32163">
        <ele>457.5</ele>
        <time>2023-08-21T12:57:31Z</time>
      </trkpt>
      <trkpt lat="48.73497" lon="7.32136">
        <ele>457.1</ele>
        <time>2023-08-21T12:57:36Z</time>
      </trkpt>
      <trkpt lat="48.73489" lon="7.32107">
        <ele>457.5</ele>
        <time>2023-08-21T12:57:42Z</time>
      </trkpt>
      <trkpt lat="48.73485" lon="7.32077">
        <ele>457.3</ele>
        <time>2023-08-21T12:57:48Z</time>
      </trkpt>
      <trkpt lat="48.73483" lon="7.32049">
        <ele>456.8</ele>
        <time>2023-08-21T12:57:53Z</time>
      </trkpt>
      <trkpt lat="48.73481" lon="7.32019">
        <ele>456.4</ele>
        <time>2023-08-21T12:57:58Z</time>
      </trkpt>
      <trkpt lat="48.7348" lon="7.31987">
        <ele>456</ele>
        <time>2023-08-21T12:58:03Z</time>
      </trkpt>
      <trkpt lat="48.73481" lon="7.31958">
        <ele>455.4</ele>
        <time>2023-08-21T12:58:08Z</time>
      </trkpt>
      <trkpt lat="48.73486" lon="7.31931">
        <ele>454.9</ele>
        <time>2023-08-21T12:58:13Z</time>
      </trkpt>
      <trkpt lat="48.73494" lon="7.31905">
        <ele>454.7</ele>
        <time>2023-08-21T12:58:18Z</time>
      </trkpt>
      <trkpt lat="48.73502" lon="7.31878">
        <ele>454.4</ele>
        <time>2023-08-21T12:58:24Z</time>
      </trkpt>
      <trkpt lat="48.73507" lon="7.31849">
        <ele>454.2</ele>
        <time>2023-08-21T12:58:30Z</time>
      </trkpt>
      <trkpt lat="48.73503" lon="7.3182">
        <ele>453.7</ele>
        <time>2023-08-21T12:58:35Z</time>
      </trkpt>
      <trkpt lat="48.73502" lon="7.31799">
        <ele>453.2</ele>
        <time>2023-08-21T12:58:38Z</time>
      </trkpt>
      <trkpt lat="48.73501" lon="7.3178">
        <ele>453</ele>
        <time>2023-08-21T12:58:41Z</time>
      </trkpt>
      <trkpt lat="48.73498" lon="7.31766">
        <ele>452.8</ele>
        <time>2023-08-21T12:58:43Z</time>
      </trkpt>
      <trkpt lat="48.73493" lon="7.31736">
        <ele>452.9</ele>
        <time>2023-08-21T12:58:47Z</time>
      </trkpt>
      <trkpt lat="48.73489" lon="7.31711">
        <ele>452.5</ele>
        <time>2023-08-21T12:58:51Z</time>
      </trkpt>
      <trkpt lat="48.73487" lon="7.31699">
        <ele>452.3</ele>
        <time>2023-08-21T12:58:53Z</time>
      </trkpt>
      <trkpt lat="48.73485" lon="7.3168">
        <ele>452</ele>
        <time>2023-08-21T12:58:56Z</time>
      </trkpt>
      <trkpt lat="48.73482" lon="7.3165">
        <ele>452.2</ele>
        <time>2023-08-21T12:59:01Z</time>
      </trkpt>
      <trkpt lat="48.7348" lon="7.31638">
        <ele>452.5</ele>
        <time>2023-08-21T12:59:03Z</time>
      </trkpt>
      <trkpt lat="48.73477" lon="7.31627">
        <ele>452.7</ele>
        <time>2023-08-21T12:59:05Z</time>
      </trkpt>
      <trkpt lat="48.73469" lon="7.31603">
        <ele>452.8</ele>
        <time>2023-08-21T12:59:10Z</time>
      </trkpt>
      <trkpt lat="48.73463" lon="7.31576">
        <ele>452.8</ele>
        <time>2023-08-21T12:59:15Z</time>
      </trkpt>
      <trkpt lat="48.73462" lon="7.31548">
        <ele>452.7</ele>
        <time>2023-08-21T12:59:21Z</time>
      </trkpt>
      <trkpt lat="48.73464" lon="7.31542">
        <ele>453</ele>
        <time>2023-08-21T12:59:25Z</time>
      </trkpt>
      <trkpt lat="48.73464" lon="7.31542">
        <ele>453.2</ele>
        <time>2023-08-21T12:59:27Z</time>
      </trkpt>
      <trkpt lat="48.73463" lon="7.31544">
        <ele>453.1</ele>
        <time>2023-08-21T12:59:29Z</time>
      </trkpt>
      <trkpt lat="48.73448" lon="7.31565">
        <ele>452.1</ele>
        <time>2023-08-21T12:59:37Z</time>
      </trkpt>
      <trkpt lat="48.73438" lon="7.31589">
        <ele>451.2</ele>
        <time>2023-08-21T12:59:42Z</time>
      </trkpt>
      <trkpt lat="48.73425" lon="7.31614">
        <ele>450.7</ele>
        <time>2023-08-21T12:59:47Z</time>
      </trkpt>
      <trkpt lat="48.73415" lon="7.31639">
        <ele>450.4</ele>
        <time>2023-08-21T12:59:51Z</time>
      </trkpt>
      <trkpt lat="48.73405" lon="7.31662">
        <ele>449.6</ele>
        <time>2023-08-21T12:59:55Z</time>
      </trkpt>
      <trkpt lat="48.73394" lon="7.31684">
        <ele>449.1</ele>
        <time>2023-08-21T12:59:59Z</time>
      </trkpt>
      <trkpt lat="48.7338" lon="7.31706">
        <ele>448.4</ele>
        <time>2023-08-21T13:00:04Z</time>
      </trkpt>
      <trkpt lat="48.73369" lon="7.31729">
        <ele>448.2</ele>
        <time>2023-08-21T13:00:09Z</time>
      </trkpt>
      <trkpt lat="48.73357" lon="7.3175">
        <ele>447.2</ele>
        <time>2023-08-21T13:00:13Z</time>
      </trkpt>
      <trkpt lat="48.7335" lon="7.31777">
        <ele>445.7</ele>
        <time>2023-08-21T13:00:19Z</time>
      </trkpt>
      <trkpt lat="48.73338" lon="7.31799">
        <ele>445</ele>
        <time>2023-08-21T13:00:28Z</time>
      </trkpt>
      <trkpt lat="48.7332" lon="7.3181">
        <ele>444.6</ele>
        <time>2023-08-21T13:00:34Z</time>
      </trkpt>
      <trkpt lat="48.73301" lon="7.31816">
        <ele>445</ele>
        <time>2023-08-21T13:00:40Z</time>
      </trkpt>
      <trkpt lat="48.7328" lon="7.31813">
        <ele>447</ele>
        <time>2023-08-21T13:00:47Z</time>
      </trkpt>
      <trkpt lat="48.73262" lon="7.31806">
        <ele>448.8</ele>
        <time>2023-08-21T13:00:52Z</time>
      </trkpt>
      <trkpt lat="48.73245" lon="7.31796">
        <ele>448.7</ele>
        <time>2023-08-21T13:00:56Z</time>
      </trkpt>
      <trkpt lat="48.73224" lon="7.31789">
        <ele>445.7</ele>
        <time>2023-08-21T13:01:00Z</time>
      </trkpt>
      <trkpt lat="48.73206" lon="7.31776">
        <ele>441.4</ele>
        <time>2023-08-21T13:01:05Z</time>
      </trkpt>
      <trkpt lat="48.73186" lon="7.31768">
        <ele>435.9</ele>
        <time>2023-08-21T13:01:12Z</time>
      </trkpt>
      <trkpt lat="48.73168" lon="7.31756">
        <ele>430.9</ele>
        <time>2023-08-21T13:01:20Z</time>
      </trkpt>
      <trkpt lat="48.73166" lon="7.31756">
        <ele>430</ele>
        <time>2023-08-21T13:01:21Z</time>
      </trkpt>
      <trkpt lat="48.73157" lon="7.31762">
        <ele>427.1</ele>
        <time>2023-08-21T13:01:28Z</time>
      </trkpt>
      <trkpt lat="48.73153" lon="7.31767">
        <ele>425.3</ele>
        <time>2023-08-21T13:01:30Z</time>
      </trkpt>
      <trkpt lat="48.73136" lon="7.31792">
        <ele>419.5</ele>
        <time>2023-08-21T13:01:38Z</time>
      </trkpt>
      <trkpt lat="48.73128" lon="7.31819">
        <ele>417.9</ele>
        <time>2023-08-21T13:01:45Z</time>
      </trkpt>
      <trkpt lat="48.73119" lon="7.31842">
        <ele>416.5</ele>
        <time>2023-08-21T13:01:53Z</time>
      </trkpt>
      <trkpt lat="48.73108" lon="7.31868">
        <ele>416.2</ele>
        <time>2023-08-21T13:01:59Z</time>
      </trkpt>
      <trkpt lat="48.731" lon="7.31893">
        <ele>417.1</ele>
        <time>2023-08-21T13:02:04Z</time>
      </trkpt>
      <trkpt lat="48.7309" lon="7.31918">
        <ele>417.9</ele>
        <time>2023-08-21T13:02:09Z</time>
      </trkpt>
      <trkpt lat="48.73081" lon="7.31943">
        <ele>418.9</ele>
        <time>2023-08-21T13:02:14Z</time>
      </trkpt>
      <trkpt lat="48.73073" lon="7.31971">
        <ele>419.2</ele>
        <time>2023-08-21T13:02:19Z</time>
      </trkpt>
      <trkpt lat="48.73062" lon="7.31994">
        <ele>418.7</ele>
        <time>2023-08-21T13:02:25Z</time>
      </trkpt>
      <trkpt lat="48.73055" lon="7.3202">
        <ele>418.9</ele>
        <time>2023-08-21T13:02:31Z</time>
      </trkpt>
      <trkpt lat="48.73049" lon="7.32047">
        <ele>418.8</ele>
        <time>2023-08-21T13:02:37Z</time>
      </trkpt>
      <trkpt lat="48.73038" lon="7.3207">
        <ele>416.8</ele>
        <time>2023-08-21T13:02:43Z</time>
      </trkpt>
      <trkpt lat="48.73031" lon="7.32096">
        <ele>413.4</ele>
        <time>2023-08-21T13:02:48Z</time>
      </trkpt>
      <trkpt lat="48.73029" lon="7.32124">
        <ele>409.9</ele>
        <time>2023-08-21T13:02:54Z</time>
      </trkpt>
      <trkpt lat="48.73016" lon="7.32135">
        <ele>407.1</ele>
        <time>2023-08-21T13:03:05Z</time>
      </trkpt>
      <trkpt lat="48.73009" lon="7.32131">
        <ele>406.8</ele>
        <time>2023-08-21T13:03:06Z</time>
      </trkpt>
      <trkpt lat="48.73007" lon="7.32128">
        <ele>406.5</ele>
        <time>2023-08-21T13:03:08Z</time>
      </trkpt>
      <trkpt lat="48.72993" lon="7.3211">
        <ele>407.3</ele>
        <time>2023-08-21T13:03:14Z</time>
      </trkpt>
      <trkpt lat="48.72976" lon="7.32093">
        <ele>407.3</ele>
        <time>2023-08-21T13:03:20Z</time>
      </trkpt>
      <trkpt lat="48.72962" lon="7.32072">
        <ele>408.8</ele>
        <time>2023-08-21T13:03:26Z</time>
      </trkpt>
      <trkpt lat="48.72962" lon="7.32045">
        <ele>410.8</ele>
        <time>2023-08-21T13:03:36Z</time>
      </trkpt>
      <trkpt lat="48.72962" lon="7.32017">
        <ele>412.1</ele>
        <time>2023-08-21T13:03:47Z</time>
      </trkpt>
      <trkpt lat="48.72959" lon="7.31989">
        <ele>412.8</ele>
        <time>2023-08-21T13:03:54Z</time>
      </trkpt>
      <trkpt lat="48.72953" lon="7.3196">
        <ele>412.7</ele>
        <time>2023-08-21T13:04:01Z</time>
      </trkpt>
      <trkpt lat="48.72951" lon="7.31934">
        <ele>411.1</ele>
        <time>2023-08-21T13:04:09Z</time>
      </trkpt>
      <trkpt lat="48.72948" lon="7.31928">
        <ele>410.7</ele>
        <time>2023-08-21T13:04:12Z</time>
      </trkpt>
      <trkpt lat="48.72945" lon="7.31901">
        <ele>408.5</ele>
        <time>2023-08-21T13:04:20Z</time>
      </trkpt>
      <trkpt lat="48.72942" lon="7.31895">
        <ele>407.9</ele>
        <time>2023-08-21T13:04:22Z</time>
      </trkpt>
      <trkpt lat="48.72939" lon="7.31887">
        <ele>407.6</ele>
        <time>2023-08-21T13:04:27Z</time>
      </trkpt>
      <trkpt lat="48.7295" lon="7.31867">
        <ele>406.5</ele>
        <time>2023-08-21T13:04:36Z</time>
      </trkpt>
      <trkpt lat="48.7295" lon="7.31851">
        <ele>405.4</ele>
        <time>2023-08-21T13:04:45Z</time>
      </trkpt>
      <trkpt lat="48.72946" lon="7.31835">
        <ele>404.4</ele>
        <time>2023-08-21T13:05:02Z</time>
      </trkpt>
      <trkpt lat="48.72931" lon="7.31825">
        <ele>403.4</ele>
        <time>2023-08-21T13:05:11Z</time>
      </trkpt>
      <trkpt lat="48.72915" lon="7.31824">
        <ele>403</ele>
        <time>2023-08-21T13:05:19Z</time>
      </trkpt>
      <trkpt lat="48.72897" lon="7.31817">
        <ele>401.8</ele>
        <time>2023-08-21T13:05:27Z</time>
      </trkpt>
      <trkpt lat="48.7288" lon="7.31821">
        <ele>401.5</ele>
        <time>2023-08-21T13:05:36Z</time>
      </trkpt>
      <trkpt lat="48.72873" lon="7.31822">
        <ele>401.2</ele>
        <time>2023-08-21T13:05:39Z</time>
      </trkpt>
      <trkpt lat="48.72856" lon="7.31841">
        <ele>400.7</ele>
        <time>2023-08-21T13:05:45Z</time>
      </trkpt>
      <trkpt lat="48.72847" lon="7.31867">
        <ele>402.8</ele>
        <time>2023-08-21T13:05:51Z</time>
      </trkpt>
      <trkpt lat="48.72836" lon="7.31892">
        <ele>404.6</ele>
        <time>2023-08-21T13:05:59Z</time>
      </trkpt>
      <trkpt lat="48.72834" lon="7.31895">
        <ele>404.6</ele>
        <time>2023-08-21T13:06:00Z</time>
      </trkpt>
      <trkpt lat="48.72827" lon="7.31904">
        <ele>404.6</ele>
        <time>2023-08-21T13:06:08Z</time>
      </trkpt>
      <trkpt lat="48.72841" lon="7.31922">
        <ele>404.6</ele>
        <time>2023-08-21T13:06:32Z</time>
      </trkpt>
      <trkpt lat="48.72857" lon="7.31935">
        <ele>404.5</ele>
        <time>2023-08-21T13:06:43Z</time>
      </trkpt>
      <trkpt lat="48.72875" lon="7.31951">
        <ele>404.5</ele>
        <time>2023-08-21T13:06:51Z</time>
      </trkpt>
      <trkpt lat="48.72882" lon="7.31975">
        <ele>404.6</ele>
        <time>2023-08-21T13:06:59Z</time>
      </trkpt>
      <trkpt lat="48.72883" lon="7.31979">
        <ele>404.6</ele>
        <time>2023-08-21T13:07:02Z</time>
      </trkpt>
      <trkpt lat="48.72887" lon="7.32007">
        <ele>403.7</ele>
        <time>2023-08-21T13:07:08Z</time>
      </trkpt>
      <trkpt lat="48.72892" lon="7.32034">
        <ele>402.5</ele>
        <time>2023-08-21T13:07:13Z</time>
      </trkpt>
      <trkpt lat="48.72899" lon="7.32064">
        <ele>401.4</ele>
        <time>2023-08-21T13:07:18Z</time>
      </trkpt>
      <trkpt lat="48.72908" lon="7.32094">
        <ele>399.9</ele>
        <time>2023-08-21T13:07:22Z</time>
      </trkpt>
      <trkpt lat="48.72916" lon="7.32124">
        <ele>398.4</ele>
        <time>2023-08-21T13:07:26Z</time>
      </trkpt>
      <trkpt lat="48.72918" lon="7.32132">
        <ele>398.1</ele>
        <time>2023-08-21T13:07:27Z</time>
      </trkpt>
      <trkpt lat="48.72929" lon="7.32164">
        <ele>397.2</ele>
        <time>2023-08-21T13:07:31Z</time>
      </trkpt>
      <trkpt lat="48.72938" lon="7.32194">
        <ele>396.5</ele>
        <time>2023-08-21T13:07:35Z</time>
      </trkpt>
      <trkpt lat="48.72947" lon="7.32225">
        <ele>396</ele>
        <time>2023-08-21T13:07:39Z</time>
      </trkpt>
      <trkpt lat="48.72958" lon="7.32255">
        <ele>395.5</ele>
        <time>2023-08-21T13:07:43Z</time>
      </trkpt>
      <trkpt lat="48.72967" lon="7.32284">
        <ele>395.2</ele>
        <time>2023-08-21T13:07:47Z</time>
      </trkpt>
      <trkpt lat="48.72968" lon="7.32289">
        <ele>394.4</ele>
        <time>2023-08-21T13:07:48Z</time>
      </trkpt>
      <trkpt lat="48.72969" lon="7.32292">
        <ele>394.4</ele>
        <time>2023-08-21T13:07:49Z</time>
      </trkpt>
      <trkpt lat="48.72968" lon="7.32297">
        <ele>394.4</ele>
        <time>2023-08-21T13:07:50Z</time>
      </trkpt>
    </trkseg>
  </trk>
</gpx>